Airfield :
LOGIN :

Register | Disclaimer

   EN    FR    IT 

 










Legend :    VFR   Marginal VFR   IFR   Intensive IFR   Very Intensive IFR
Visi :
Ceiling :
>= 8 km
>= 3000ft
5 to 8 km
1000 to 3000 ft
1500m to 5 km
500 to 1000 ft
800 to 1500m
200 to 500 ft
< 800m
< 200 ft
Symbols :   Thunderstorms  Fog  Heavy snow  Heavy precipitations  Wind > 20 kt
SIGMETs :     Misc.  Thunderstorms  Icing  Turbulence  Mountain Waves  Volcanic Ashes






- Airport Elevation : 479 ft
- IATA code : DOL


LFRG - Deauville

CURRENT METAR :
  • 251330Z AUTO 32009KT 280V360 CAVOK 06/M02 Q1012 NOSIG

EXPIRED METARs :
  • 251300Z AUTO 33008KT 290V010 CAVOK 06/M02 Q1012 NOSIG
  • 251230Z AUTO 34007KT 300V020 CAVOK 06/M01 Q1012 NOSIG
  • 251200Z AUTO 36009KT 310V030 CAVOK 05/M02 Q1011 NOSIG
  • 251130Z AUTO 35010KT 320V020 9999 FEW029 05/M02 Q1011 NOSIG
  • 251100Z AUTO 35009KT 320V040 9999 FEW028 05/M00 Q1011 NOSIG
  • 251030Z AUTO 36009KT 330V030 9999 FEW020 05/M00 Q1010 NOSIG

TAF TAF LFRG
Valid from the 25 at 12:00 until the 25 at 21:00 UTC


251100Z 2512/2521 36010KT 9999 SCT030
BECMG 2515/2517 30008KT
ATIS : +33 2 31 65 65 36



MET'MAP, your aeronautical weather chart ! - Copyright ORBIFLY December 2007 - Disclaimer

ORBIFLY MET'MAP TEAM :

Programming & Development : Alexandra Zaïnal
Concept & original design : Baudouin d'Aumeries
Assistance for programming : Marc-Olivier Méhu
Technical & hardware support : Manuel Goepfert

Contact : metmap@orbifly.com




SOURCES & CREDITS :

   NOAA